Terminal Aerodrome Forecast
Issued by NWS

Home | Current Version | Previous Version | Text Only | Print | Product List | Glossary On
Versions: 1 2 3 4 5 6 7 8 9 10 11 12
172
FTUS42 TJSJ 231745
TAFISX
TAF
TISX 231745Z 2318/2418 11012KT P6SM FEW025 FEW035
     FM232300 08006KT P6SM FEW025
     FM241300 11015KT P6SM FEW030 FEW050=

USA.gov is the U.S. government's official web portal to all federal, state and local government web resources and services.